sensor_id;sensor_type;location;lat;lon;timestamp;P1;durP1;ratioP1;P2;durP2;ratioP2
17153;SDS011;8692;52.164;7.558;2022-10-28T00:01:29;8.23;;;4.40;;
17153;SDS011;8692;52.164;7.558;2022-10-28T00:03:59;5.70;;;4.00;;
17153;SDS011;8692;52.164;7.558;2022-10-28T00:06:28;5.93;;;4.43;;
17153;SDS011;8692;52.164;7.558;2022-10-28T00:09:00;5.17;;;4.30;;
17153;SDS011;8692;52.164;7.558;2022-10-28T00:11:33;5.70;;;4.67;;
17153;SDS011;8692;52.164;7.558;2022-10-28T00:14:03;6.23;;;4.60;;
17153;SDS011;8692;52.164;7.558;2022-10-28T00:16:36;5.87;;;4.40;;
17153;SDS011;8692;52.164;7.558;2022-10-28T00:19:06;5.20;;;4.60;;
17153;SDS011;8692;52.164;7.558;2022-10-28T00:21:39;7.40;;;4.93;;
17153;SDS011;8692;52.164;7.558;2022-10-28T00:24:11;5.97;;;4.87;;
17153;SDS011;8692;52.164;7.558;2022-10-28T00:26:41;12.20;;;5.53;;
17153;SDS011;8692;52.164;7.558;2022-10-28T00:29:14;6.13;;;4.80;;
17153;SDS011;8692;52.164;7.558;2022-10-28T00:31:46;6.97;;;4.73;;
17153;SDS011;8692;52.164;7.558;2022-10-28T00:34:15;7.00;;;4.93;;
17153;SDS011;8692;52.164;7.558;2022-10-28T00:36:49;8.43;;;5.50;;
17153;SDS011;8692;52.164;7.558;2022-10-28T00:39:19;9.03;;;5.20;;
17153;SDS011;8692;52.164;7.558;2022-10-28T00:41:49;6.80;;;4.93;;
17153;SDS011;8692;52.164;7.558;2022-10-28T00:44:42;7.33;;;5.50;;
17153;SDS011;8692;52.164;7.558;2022-10-28T00:47:34;5.80;;;5.20;;
17153;SDS011;8692;52.164;7.558;2022-10-28T00:50:12;8.63;;;5.23;;
17153;SDS011;8692;52.164;7.558;2022-10-28T00:52:54;6.60;;;4.53;;
17153;SDS011;8692;52.164;7.558;2022-10-28T00:55:27;6.53;;;5.60;;
17153;SDS011;8692;52.164;7.558;2022-10-28T00:57:57;7.10;;;4.53;;
17153;SDS011;8692;52.164;7.558;2022-10-28T01:00:29;10.10;;;5.30;;
17153;SDS011;8692;52.164;7.558;2022-10-28T01:02:57;5.37;;;4.63;;
17153;SDS011;8692;52.164;7.558;2022-10-28T01:05:28;8.10;;;5.50;;
17153;SDS011;8692;52.164;7.558;2022-10-28T01:08:02;7.13;;;5.47;;
17153;SDS011;8692;52.164;7.558;2022-10-28T01:10:48;9.10;;;5.83;;
17153;SDS011;8692;52.164;7.558;2022-10-28T01:13:32;10.07;;;5.43;;
17153;SDS011;8692;52.164;7.558;2022-10-28T01:16:06;10.90;;;5.17;;
17153;SDS011;8692;52.164;7.558;2022-10-28T01:18:48;5.40;;;4.90;;
17153;SDS011;8692;52.164;7.558;2022-10-28T01:21:42;6.33;;;5.70;;
17153;SDS011;8692;52.164;7.558;2022-10-28T01:24:35;7.67;;;5.10;;
17153;SDS011;8692;52.164;7.558;2022-10-28T01:27:43;6.17;;;5.47;;
17153;SDS011;8692;52.164;7.558;2022-10-28T01:30:25;7.00;;;4.77;;
17153;SDS011;8692;52.164;7.558;2022-10-28T01:33:00;9.27;;;5.43;;
17153;SDS011;8692;52.164;7.558;2022-10-28T01:35:36;10.63;;;6.07;;
17153;SDS011;8692;52.164;7.558;2022-10-28T01:38:16;7.30;;;5.20;;
17153;SDS011;8692;52.164;7.558;2022-10-28T01:40:56;5.67;;;4.83;;
17153;SDS011;8692;52.164;7.558;2022-10-28T01:43:32;7.43;;;4.40;;
17153;SDS011;8692;52.164;7.558;2022-10-28T01:46:10;5.97;;;4.67;;
17153;SDS011;8692;52.164;7.558;2022-10-28T01:48:44;4.90;;;4.40;;
17153;SDS011;8692;52.164;7.558;2022-10-28T01:51:20;10.40;;;5.20;;
17153;SDS011;8692;52.164;7.558;2022-10-28T01:53:54;8.50;;;5.67;;
17153;SDS011;8692;52.164;7.558;2022-10-28T01:56:25;8.30;;;5.50;;
17153;SDS011;8692;52.164;7.558;2022-10-28T01:58:59;8.93;;;4.73;;
17153;SDS011;8692;52.164;7.558;2022-10-28T02:01:29;9.20;;;4.87;;
17153;SDS011;8692;52.164;7.558;2022-10-28T02:04:00;10.30;;;5.07;;
17153;SDS011;8692;52.164;7.558;2022-10-28T02:06:29;9.67;;;5.60;;
17153;SDS011;8692;52.164;7.558;2022-10-28T02:09:05;10.60;;;5.10;;
17153;SDS011;8692;52.164;7.558;2022-10-28T02:11:53;8.00;;;5.13;;
17153;SDS011;8692;52.164;7.558;2022-10-28T02:14:43;7.97;;;5.97;;
17153;SDS011;8692;52.164;7.558;2022-10-28T02:17:48;8.90;;;5.10;;
17153;SDS011;8692;52.164;7.558;2022-10-28T02:20:26;10.17;;;5.07;;
17153;SDS011;8692;52.164;7.558;2022-10-28T02:23:06;5.83;;;4.47;;
17153;SDS011;8692;52.164;7.558;2022-10-28T02:25:45;6.47;;;4.93;;
17153;SDS011;8692;52.164;7.558;2022-10-28T02:28:20;5.30;;;4.37;;
17153;SDS011;8692;52.164;7.558;2022-10-28T02:30:52;7.33;;;5.03;;
17153;SDS011;8692;52.164;7.558;2022-10-28T02:33:28;7.47;;;4.67;;
17153;SDS011;8692;52.164;7.558;2022-10-28T02:36:03;7.23;;;4.77;;
17153;SDS011;8692;52.164;7.558;2022-10-28T02:38:35;5.53;;;4.50;;
17153;SDS011;8692;52.164;7.558;2022-10-28T02:41:08;6.77;;;5.10;;
17153;SDS011;8692;52.164;7.558;2022-10-28T02:43:42;6.60;;;4.50;;
17153;SDS011;8692;52.164;7.558;2022-10-28T02:46:15;6.37;;;4.97;;
17153;SDS011;8692;52.164;7.558;2022-10-28T02:48:48;8.40;;;5.13;;
17153;SDS011;8692;52.164;7.558;2022-10-28T02:51:23;6.93;;;4.47;;
17153;SDS011;8692;52.164;7.558;2022-10-28T02:53:58;6.77;;;5.10;;
17153;SDS011;8692;52.164;7.558;2022-10-28T02:56:31;6.43;;;5.03;;
17153;SDS011;8692;52.164;7.558;2022-10-28T02:59:07;6.67;;;4.97;;
17153;SDS011;8692;52.164;7.558;2022-10-28T03:01:36;7.00;;;4.50;;
17153;SDS011;8692;52.164;7.558;2022-10-28T03:04:05;4.77;;;4.17;;
17153;SDS011;8692;52.164;7.558;2022-10-28T03:06:34;5.77;;;4.63;;
17153;SDS011;8692;52.164;7.558;2022-10-28T03:09:02;10.07;;;5.00;;
17153;SDS011;8692;52.164;7.558;2022-10-28T03:11:31;6.93;;;5.17;;
17153;SDS011;8692;52.164;7.558;2022-10-28T03:13:59;6.93;;;4.97;;
17153;SDS011;8692;52.164;7.558;2022-10-28T03:16:27;6.70;;;4.60;;
17153;SDS011;8692;52.164;7.558;2022-10-28T03:18:55;7.80;;;5.27;;
17153;SDS011;8692;52.164;7.558;2022-10-28T03:21:23;6.77;;;4.83;;
17153;SDS011;8692;52.164;7.558;2022-10-28T03:23:53;6.67;;;4.53;;
17153;SDS011;8692;52.164;7.558;2022-10-28T03:26:21;6.13;;;4.27;;
17153;SDS011;8692;52.164;7.558;2022-10-28T03:28:49;7.73;;;4.50;;
17153;SDS011;8692;52.164;7.558;2022-10-28T03:31:20;6.93;;;4.97;;
17153;SDS011;8692;52.164;7.558;2022-10-28T03:33:51;5.27;;;4.50;;
17153;SDS011;8692;52.164;7.558;2022-10-28T03:36:19;8.07;;;5.17;;
17153;SDS011;8692;52.164;7.558;2022-10-28T03:38:47;8.70;;;5.53;;
17153;SDS011;8692;52.164;7.558;2022-10-28T03:41:16;5.77;;;4.47;;
17153;SDS011;8692;52.164;7.558;2022-10-28T03:43:44;6.80;;;4.90;;
17153;SDS011;8692;52.164;7.558;2022-10-28T03:46:13;8.93;;;5.20;;
17153;SDS011;8692;52.164;7.558;2022-10-28T03:48:41;5.50;;;4.70;;
17153;SDS011;8692;52.164;7.558;2022-10-28T03:51:09;7.80;;;5.37;;
17153;SDS011;8692;52.164;7.558;2022-10-28T03:53:37;6.97;;;5.00;;
17153;SDS011;8692;52.164;7.558;2022-10-28T03:56:05;6.03;;;4.33;;
17153;SDS011;8692;52.164;7.558;2022-10-28T03:58:35;6.00;;;4.60;;
17153;SDS011;8692;52.164;7.558;2022-10-28T04:01:09;8.17;;;5.07;;
17153;SDS011;8692;52.164;7.558;2022-10-28T04:03:37;7.33;;;4.93;;
17153;SDS011;8692;52.164;7.558;2022-10-28T04:06:06;7.70;;;5.30;;
17153;SDS011;8692;52.164;7.558;2022-10-28T04:08:35;6.37;;;4.50;;
17153;SDS011;8692;52.164;7.558;2022-10-28T04:11:03;6.63;;;4.77;;
17153;SDS011;8692;52.164;7.558;2022-10-28T04:13:36;6.97;;;3.90;;
17153;SDS011;8692;52.164;7.558;2022-10-28T04:16:06;5.33;;;4.60;;
17153;SDS011;8692;52.164;7.558;2022-10-28T04:18:34;5.17;;;4.67;;
17153;SDS011;8692;52.164;7.558;2022-10-28T04:21:02;5.30;;;4.60;;
17153;SDS011;8692;52.164;7.558;2022-10-28T04:23:31;6.43;;;5.00;;
17153;SDS011;8692;52.164;7.558;2022-10-28T04:25:59;6.73;;;4.83;;
17153;SDS011;8692;52.164;7.558;2022-10-28T04:28:27;5.30;;;4.00;;
17153;SDS011;8692;52.164;7.558;2022-10-28T04:30:57;7.20;;;4.57;;
17153;SDS011;8692;52.164;7.558;2022-10-28T04:33:25;5.43;;;4.13;;
17153;SDS011;8692;52.164;7.558;2022-10-28T04:35:56;5.23;;;4.47;;
17153;SDS011;8692;52.164;7.558;2022-10-28T04:38:24;6.40;;;5.00;;
17153;SDS011;8692;52.164;7.558;2022-10-28T04:40:52;6.53;;;4.60;;
17153;SDS011;8692;52.164;7.558;2022-10-28T04:43:21;5.73;;;4.80;;
17153;SDS011;8692;52.164;7.558;2022-10-28T04:45:49;8.53;;;5.20;;
17153;SDS011;8692;52.164;7.558;2022-10-28T04:48:20;6.50;;;5.37;;
17153;SDS011;8692;52.164;7.558;2022-10-28T04:50:48;6.27;;;5.23;;
17153;SDS011;8692;52.164;7.558;2022-10-28T04:53:17;6.13;;;4.63;;
17153;SDS011;8692;52.164;7.558;2022-10-28T04:55:45;6.37;;;4.97;;
17153;SDS011;8692;52.164;7.558;2022-10-28T04:58:13;6.93;;;4.70;;
17153;SDS011;8692;52.164;7.558;2022-10-28T05:00:42;4.97;;;4.43;;
17153;SDS011;8692;52.164;7.558;2022-10-28T05:03:10;6.77;;;4.77;;
17153;SDS011;8692;52.164;7.558;2022-10-28T05:05:42;4.73;;;4.20;;
17153;SDS011;8692;52.164;7.558;2022-10-28T05:08:10;5.70;;;5.20;;
17153;SDS011;8692;52.164;7.558;2022-10-28T05:10:38;5.60;;;4.70;;
17153;SDS011;8692;52.164;7.558;2022-10-28T05:13:06;5.80;;;4.40;;
17153;SDS011;8692;52.164;7.558;2022-10-28T05:15:36;6.15;;;5.25;;
17153;SDS011;8692;52.164;7.558;2022-10-28T05:18:07;5.53;;;4.70;;
17153;SDS011;8692;52.164;7.558;2022-10-28T05:20:35;5.87;;;4.53;;
17153;SDS011;8692;52.164;7.558;2022-10-28T05:23:04;7.20;;;5.03;;
17153;SDS011;8692;52.164;7.558;2022-10-28T05:25:33;7.73;;;4.70;;
17153;SDS011;8692;52.164;7.558;2022-10-28T05:28:03;5.87;;;4.23;;
17153;SDS011;8692;52.164;7.558;2022-10-28T05:30:32;6.47;;;4.80;;
17153;SDS011;8692;52.164;7.558;2022-10-28T05:33:02;5.67;;;4.37;;
17153;SDS011;8692;52.164;7.558;2022-10-28T05:35:33;6.30;;;4.90;;
17153;SDS011;8692;52.164;7.558;2022-10-28T05:38:01;5.70;;;4.90;;
17153;SDS011;8692;52.164;7.558;2022-10-28T05:40:33;5.93;;;4.90;;
17153;SDS011;8692;52.164;7.558;2022-10-28T05:43:03;5.30;;;4.80;;
17153;SDS011;8692;52.164;7.558;2022-10-28T05:45:31;4.90;;;4.30;;
17153;SDS011;8692;52.164;7.558;2022-10-28T05:48:07;8.63;;;4.83;;
17153;SDS011;8692;52.164;7.558;2022-10-28T05:50:35;6.13;;;4.87;;
17153;SDS011;8692;52.164;7.558;2022-10-28T05:53:06;5.90;;;4.33;;
17153;SDS011;8692;52.164;7.558;2022-10-28T05:55:35;5.93;;;4.53;;
17153;SDS011;8692;52.164;7.558;2022-10-28T05:58:06;7.33;;;4.50;;
17153;SDS011;8692;52.164;7.558;2022-10-28T06:00:35;6.43;;;4.80;;
17153;SDS011;8692;52.164;7.558;2022-10-28T06:03:04;4.13;;;3.73;;
17153;SDS011;8692;52.164;7.558;2022-10-28T06:05:34;6.90;;;4.80;;
17153;SDS011;8692;52.164;7.558;2022-10-28T06:08:03;4.53;;;4.10;;
17153;SDS011;8692;52.164;7.558;2022-10-28T06:10:32;5.23;;;4.57;;
17153;SDS011;8692;52.164;7.558;2022-10-28T06:13:02;5.10;;;4.33;;
17153;SDS011;8692;52.164;7.558;2022-10-28T06:15:30;4.70;;;4.30;;
17153;SDS011;8692;52.164;7.558;2022-10-28T06:17:59;5.30;;;4.10;;
17153;SDS011;8692;52.164;7.558;2022-10-28T06:20:29;5.87;;;4.37;;
17153;SDS011;8692;52.164;7.558;2022-10-28T06:22:58;5.27;;;4.77;;
17153;SDS011;8692;52.164;7.558;2022-10-28T06:25:26;5.77;;;4.13;;
17153;SDS011;8692;52.164;7.558;2022-10-28T06:27:54;5.27;;;4.33;;
17153;SDS011;8692;52.164;7.558;2022-10-28T06:30:25;6.30;;;4.63;;
17153;SDS011;8692;52.164;7.558;2022-10-28T06:32:55;5.23;;;4.63;;
17153;SDS011;8692;52.164;7.558;2022-10-28T06:35:25;6.93;;;5.03;;
17153;SDS011;8692;52.164;7.558;2022-10-28T06:37:53;9.33;;;5.37;;
17153;SDS011;8692;52.164;7.558;2022-10-28T06:40:22;6.70;;;4.73;;
17153;SDS011;8692;52.164;7.558;2022-10-28T06:42:57;8.57;;;5.20;;
17153;SDS011;8692;52.164;7.558;2022-10-28T06:45:28;8.30;;;5.37;;
17153;SDS011;8692;52.164;7.558;2022-10-28T06:47:56;6.77;;;5.53;;
17153;SDS011;8692;52.164;7.558;2022-10-28T06:50:25;8.40;;;5.67;;
17153;SDS011;8692;52.164;7.558;2022-10-28T06:52:54;10.10;;;5.80;;
17153;SDS011;8692;52.164;7.558;2022-10-28T06:55:22;6.03;;;5.30;;
17153;SDS011;8692;52.164;7.558;2022-10-28T06:57:53;8.97;;;5.33;;
17153;SDS011;8692;52.164;7.558;2022-10-28T07:00:29;8.17;;;5.33;;
17153;SDS011;8692;52.164;7.558;2022-10-28T07:03:01;8.87;;;5.77;;
17153;SDS011;8692;52.164;7.558;2022-10-28T07:05:31;7.30;;;5.13;;
17153;SDS011;8692;52.164;7.558;2022-10-28T07:08:02;7.27;;;4.90;;
17153;SDS011;8692;52.164;7.558;2022-10-28T07:10:33;6.93;;;5.10;;
17153;SDS011;8692;52.164;7.558;2022-10-28T07:13:02;7.47;;;5.20;;
17153;SDS011;8692;52.164;7.558;2022-10-28T07:15:31;7.77;;;5.73;;
17153;SDS011;8692;52.164;7.558;2022-10-28T07:17:59;7.00;;;5.23;;
17153;SDS011;8692;52.164;7.558;2022-10-28T07:20:28;8.70;;;5.10;;
17153;SDS011;8692;52.164;7.558;2022-10-28T07:22:58;8.10;;;6.55;;
17153;SDS011;8692;52.164;7.558;2022-10-28T07:25:28;10.00;;;5.70;;
17153;SDS011;8692;52.164;7.558;2022-10-28T07:27:57;12.63;;;6.47;;
17153;SDS011;8692;52.164;7.558;2022-10-28T07:30:28;7.07;;;5.63;;
17153;SDS011;8692;52.164;7.558;2022-10-28T07:32:57;7.87;;;5.53;;
17153;SDS011;8692;52.164;7.558;2022-10-28T07:35:26;11.83;;;6.30;;
17153;SDS011;8692;52.164;7.558;2022-10-28T07:37:55;9.80;;;7.10;;
17153;SDS011;8692;52.164;7.558;2022-10-28T07:40:24;9.37;;;5.87;;
17153;SDS011;8692;52.164;7.558;2022-10-28T07:42:52;9.70;;;6.13;;
17153;SDS011;8692;52.164;7.558;2022-10-28T07:45:24;10.47;;;6.00;;
17153;SDS011;8692;52.164;7.558;2022-10-28T07:47:54;6.17;;;5.50;;
17153;SDS011;8692;52.164;7.558;2022-10-28T07:50:24;13.73;;;6.40;;
17153;SDS011;8692;52.164;7.558;2022-10-28T07:52:52;15.73;;;6.13;;
17153;SDS011;8692;52.164;7.558;2022-10-28T07:55:23;9.67;;;5.77;;
17153;SDS011;8692;52.164;7.558;2022-10-28T07:57:54;16.47;;;6.63;;
17153;SDS011;8692;52.164;7.558;2022-10-28T08:00:22;11.30;;;5.87;;
17153;SDS011;8692;52.164;7.558;2022-10-28T08:02:53;14.03;;;6.37;;
17153;SDS011;8692;52.164;7.558;2022-10-28T08:05:21;9.23;;;5.77;;
17153;SDS011;8692;52.164;7.558;2022-10-28T08:07:50;11.87;;;5.50;;
17153;SDS011;8692;52.164;7.558;2022-10-28T08:10:22;13.40;;;5.70;;
17153;SDS011;8692;52.164;7.558;2022-10-28T08:12:57;10.80;;;5.33;;
17153;SDS011;8692;52.164;7.558;2022-10-28T08:15:26;9.77;;;4.50;;
17153;SDS011;8692;52.164;7.558;2022-10-28T08:17:55;10.60;;;4.70;;
17153;SDS011;8692;52.164;7.558;2022-10-28T08:20:23;13.30;;;4.83;;
17153;SDS011;8692;52.164;7.558;2022-10-28T08:22:55;9.90;;;5.20;;
17153;SDS011;8692;52.164;7.558;2022-10-28T08:25:32;13.47;;;5.07;;
17153;SDS011;8692;52.164;7.558;2022-10-28T08:28:03;11.10;;;4.80;;
17153;SDS011;8692;52.164;7.558;2022-10-28T08:30:31;13.83;;;5.50;;
17153;SDS011;8692;52.164;7.558;2022-10-28T08:33:19;10.57;;;4.63;;
17153;SDS011;8692;52.164;7.558;2022-10-28T08:35:50;14.90;;;4.90;;
17153;SDS011;8692;52.164;7.558;2022-10-28T08:38:20;14.17;;;5.03;;
17153;SDS011;8692;52.164;7.558;2022-10-28T08:40:52;18.80;;;6.03;;
17153;SDS011;8692;52.164;7.558;2022-10-28T08:43:33;13.87;;;5.00;;
17153;SDS011;8692;52.164;7.558;2022-10-28T08:46:34;14.70;;;4.43;;
17153;SDS011;8692;52.164;7.558;2022-10-28T08:49:17;10.97;;;4.17;;
17153;SDS011;8692;52.164;7.558;2022-10-28T08:51:47;11.13;;;4.50;;
17153;SDS011;8692;52.164;7.558;2022-10-28T08:54:22;11.13;;;4.13;;
17153;SDS011;8692;52.164;7.558;2022-10-28T08:56:53;14.17;;;4.30;;
17153;SDS011;8692;52.164;7.558;2022-10-28T08:59:29;8.93;;;3.80;;
17153;SDS011;8692;52.164;7.558;2022-10-28T09:01:59;13.83;;;4.67;;
17153;SDS011;8692;52.164;7.558;2022-10-28T09:04:39;12.33;;;4.97;;
17153;SDS011;8692;52.164;7.558;2022-10-28T09:07:13;6.90;;;4.03;;
17153;SDS011;8692;52.164;7.558;2022-10-28T09:09:45;15.63;;;4.40;;
17153;SDS011;8692;52.164;7.558;2022-10-28T09:12:18;15.57;;;4.77;;
17153;SDS011;8692;52.164;7.558;2022-10-28T09:15:07;11.63;;;4.33;;
17153;SDS011;8692;52.164;7.558;2022-10-28T09:17:51;13.03;;;4.33;;
17153;SDS011;8692;52.164;7.558;2022-10-28T09:20:42;21.03;;;4.73;;
17153;SDS011;8692;52.164;7.558;2022-10-28T09:23:22;9.20;;;4.23;;
17153;SDS011;8692;52.164;7.558;2022-10-28T09:26:01;11.40;;;4.43;;
17153;SDS011;8692;52.164;7.558;2022-10-28T09:28:49;7.50;;;3.90;;
17153;SDS011;8692;52.164;7.558;2022-10-28T09:31:27;15.87;;;4.13;;
17153;SDS011;8692;52.164;7.558;2022-10-28T09:34:04;16.02;;;5.22;;
17153;SDS011;8692;52.164;7.558;2022-10-28T09:36:54;12.53;;;3.50;;
17153;SDS011;8692;52.164;7.558;2022-10-28T09:39:30;10.73;;;3.73;;
17153;SDS011;8692;52.164;7.558;2022-10-28T09:42:05;12.87;;;3.83;;
17153;SDS011;8692;52.164;7.558;2022-10-28T09:44:39;12.53;;;4.10;;
17153;SDS011;8692;52.164;7.558;2022-10-28T09:47:12;13.47;;;4.10;;
17153;SDS011;8692;52.164;7.558;2022-10-28T09:49:46;9.83;;;4.13;;
17153;SDS011;8692;52.164;7.558;2022-10-28T09:52:17;10.83;;;3.73;;
17153;SDS011;8692;52.164;7.558;2022-10-28T09:54:49;8.53;;;3.90;;
17153;SDS011;8692;52.164;7.558;2022-10-28T09:57:20;10.70;;;4.03;;
17153;SDS011;8692;52.164;7.558;2022-10-28T09:59:51;10.60;;;4.23;;
17153;SDS011;8692;52.164;7.558;2022-10-28T10:02:25;7.20;;;4.10;;
17153;SDS011;8692;52.164;7.558;2022-10-28T10:04:55;12.10;;;4.23;;
17153;SDS011;8692;52.164;7.558;2022-10-28T10:07:26;17.23;;;4.10;;
17153;SDS011;8692;52.164;7.558;2022-10-28T10:10:00;9.27;;;4.23;;
17153;SDS011;8692;52.164;7.558;2022-10-28T10:12:36;7.60;;;3.70;;
17153;SDS011;8692;52.164;7.558;2022-10-28T10:15:10;9.77;;;4.03;;
17153;SDS011;8692;52.164;7.558;2022-10-28T10:17:43;18.47;;;4.10;;
17153;SDS011;8692;52.164;7.558;2022-10-28T10:20:14;14.17;;;3.73;;
17153;SDS011;8692;52.164;7.558;2022-10-28T10:22:47;11.03;;;3.83;;
17153;SDS011;8692;52.164;7.558;2022-10-28T10:25:22;16.47;;;4.67;;
17153;SDS011;8692;52.164;7.558;2022-10-28T10:27:58;13.87;;;4.20;;
17153;SDS011;8692;52.164;7.558;2022-10-28T10:30:29;13.70;;;3.63;;
17153;SDS011;8692;52.164;7.558;2022-10-28T10:33:01;9.67;;;3.80;;
17153;SDS011;8692;52.164;7.558;2022-10-28T10:35:30;10.67;;;3.53;;
17153;SDS011;8692;52.164;7.558;2022-10-28T10:38:00;10.40;;;4.07;;
17153;SDS011;8692;52.164;7.558;2022-10-28T10:40:32;5.63;;;3.47;;
17153;SDS011;8692;52.164;7.558;2022-10-28T10:43:18;9.00;;;3.80;;
17153;SDS011;8692;52.164;7.558;2022-10-28T10:45:51;10.57;;;3.93;;
17153;SDS011;8692;52.164;7.558;2022-10-28T10:48:26;11.40;;;3.93;;
17153;SDS011;8692;52.164;7.558;2022-10-28T10:50:55;8.77;;;3.70;;
17153;SDS011;8692;52.164;7.558;2022-10-28T10:53:24;14.17;;;4.07;;
17153;SDS011;8692;52.164;7.558;2022-10-28T10:55:55;17.50;;;4.23;;
17153;SDS011;8692;52.164;7.558;2022-10-28T10:58:27;25.20;;;4.50;;
17153;SDS011;8692;52.164;7.558;2022-10-28T11:00:58;16.63;;;4.73;;
17153;SDS011;8692;52.164;7.558;2022-10-28T11:03:32;9.93;;;3.90;;
17153;SDS011;8692;52.164;7.558;2022-10-28T11:06:06;18.73;;;4.17;;
17153;SDS011;8692;52.164;7.558;2022-10-28T11:08:48;13.20;;;3.53;;
17153;SDS011;8692;52.164;7.558;2022-10-28T11:11:22;10.60;;;3.80;;
17153;SDS011;8692;52.164;7.558;2022-10-28T11:14:04;12.87;;;4.13;;
17153;SDS011;8692;52.164;7.558;2022-10-28T11:16:46;11.50;;;3.73;;
17153;SDS011;8692;52.164;7.558;2022-10-28T11:19:23;13.83;;;4.10;;
17153;SDS011;8692;52.164;7.558;2022-10-28T11:22:00;9.33;;;4.07;;
17153;SDS011;8692;52.164;7.558;2022-10-28T11:24:44;13.40;;;3.97;;
17153;SDS011;8692;52.164;7.558;2022-10-28T11:27:30;13.67;;;3.83;;
17153;SDS011;8692;52.164;7.558;2022-10-28T11:30:11;8.87;;;4.47;;
17153;SDS011;8692;52.164;7.558;2022-10-28T11:32:46;14.37;;;6.40;;
17153;SDS011;8692;52.164;7.558;2022-10-28T11:35:47;10.70;;;3.73;;
17153;SDS011;8692;52.164;7.558;2022-10-28T11:38:26;16.17;;;4.53;;
17153;SDS011;8692;52.164;7.558;2022-10-28T11:41:15;9.70;;;3.73;;
17153;SDS011;8692;52.164;7.558;2022-10-28T11:43:49;11.53;;;3.47;;
17153;SDS011;8692;52.164;7.558;2022-10-28T11:46:29;11.03;;;3.77;;
17153;SDS011;8692;52.164;7.558;2022-10-28T11:49:28;16.63;;;4.20;;
17153;SDS011;8692;52.164;7.558;2022-10-28T11:52:15;13.30;;;3.53;;
17153;SDS011;8692;52.164;7.558;2022-10-28T11:54:57;12.33;;;4.20;;
17153;SDS011;8692;52.164;7.558;2022-10-28T11:57:38;11.40;;;4.00;;
17153;SDS011;8692;52.164;7.558;2022-10-28T12:00:24;9.30;;;3.37;;
17153;SDS011;8692;52.164;7.558;2022-10-28T12:03:11;13.43;;;4.23;;
17153;SDS011;8692;52.164;7.558;2022-10-28T12:06:06;11.37;;;3.60;;
17153;SDS011;8692;52.164;7.558;2022-10-28T12:08:45;13.87;;;3.87;;
17153;SDS011;8692;52.164;7.558;2022-10-28T12:11:31;14.80;;;4.30;;
17153;SDS011;8692;52.164;7.558;2022-10-28T12:14:10;6.60;;;3.23;;
17153;SDS011;8692;52.164;7.558;2022-10-28T12:16:45;15.17;;;3.70;;
17153;SDS011;8692;52.164;7.558;2022-10-28T12:19:20;14.27;;;3.80;;
17153;SDS011;8692;52.164;7.558;2022-10-28T12:21:55;13.53;;;3.53;;
17153;SDS011;8692;52.164;7.558;2022-10-28T12:24:28;11.10;;;3.73;;
17153;SDS011;8692;52.164;7.558;2022-10-28T12:27:02;14.30;;;4.03;;
17153;SDS011;8692;52.164;7.558;2022-10-28T12:29:45;10.33;;;4.03;;
17153;SDS011;8692;52.164;7.558;2022-10-28T12:32:19;13.63;;;4.20;;
17153;SDS011;8692;52.164;7.558;2022-10-28T12:34:52;12.57;;;4.07;;
17153;SDS011;8692;52.164;7.558;2022-10-28T12:37:30;9.00;;;3.60;;
17153;SDS011;8692;52.164;7.558;2022-10-28T12:40:13;15.40;;;3.90;;
17153;SDS011;8692;52.164;7.558;2022-10-28T12:42:48;13.60;;;3.77;;
17153;SDS011;8692;52.164;7.558;2022-10-28T12:45:22;17.27;;;4.63;;
17153;SDS011;8692;52.164;7.558;2022-10-28T12:47:53;15.13;;;4.07;;
17153;SDS011;8692;52.164;7.558;2022-10-28T12:50:28;18.27;;;4.20;;
17153;SDS011;8692;52.164;7.558;2022-10-28T12:53:16;13.43;;;3.77;;
17153;SDS011;8692;52.164;7.558;2022-10-28T12:55:54;16.20;;;3.83;;
17153;SDS011;8692;52.164;7.558;2022-10-28T12:58:27;17.50;;;4.00;;
17153;SDS011;8692;52.164;7.558;2022-10-28T13:01:02;9.60;;;3.63;;
17153;SDS011;8692;52.164;7.558;2022-10-28T13:03:34;15.70;;;3.50;;
17153;SDS011;8692;52.164;7.558;2022-10-28T13:06:20;13.00;;;3.60;;
17153;SDS011;8692;52.164;7.558;2022-10-28T13:09:12;12.83;;;3.93;;
17153;SDS011;8692;52.164;7.558;2022-10-28T13:12:04;17.87;;;4.60;;
17153;SDS011;8692;52.164;7.558;2022-10-28T13:17:57;15.03;;;5.03;;
17153;SDS011;8692;52.164;7.558;2022-10-28T13:20:45;7.90;;;3.80;;
17153;SDS011;8692;52.164;7.558;2022-10-28T13:23:21;10.53;;;3.53;;
17153;SDS011;8692;52.164;7.558;2022-10-28T13:26:02;11.77;;;3.90;;
17153;SDS011;8692;52.164;7.558;2022-10-28T13:28:40;10.07;;;3.67;;
17153;SDS011;8692;52.164;7.558;2022-10-28T13:31:12;11.63;;;4.20;;
17153;SDS011;8692;52.164;7.558;2022-10-28T13:33:46;11.73;;;3.83;;
17153;SDS011;8692;52.164;7.558;2022-10-28T13:36:18;14.60;;;4.07;;
17153;SDS011;8692;52.164;7.558;2022-10-28T13:38:53;11.67;;;3.90;;
17153;SDS011;8692;52.164;7.558;2022-10-28T13:41:26;13.80;;;3.80;;
17153;SDS011;8692;52.164;7.558;2022-10-28T13:56:15;12.27;;;4.30;;
17153;SDS011;8692;52.164;7.558;2022-10-28T13:58:59;14.17;;;4.13;;
17153;SDS011;8692;52.164;7.558;2022-10-28T14:04:39;13.13;;;3.83;;
17153;SDS011;8692;52.164;7.558;2022-10-28T14:07:19;9.83;;;4.17;;
17153;SDS011;8692;52.164;7.558;2022-10-28T14:09:52;12.07;;;4.40;;
17153;SDS011;8692;52.164;7.558;2022-10-28T14:12:29;10.53;;;3.90;;
17153;SDS011;8692;52.164;7.558;2022-10-28T14:15:00;14.07;;;4.67;;
17153;SDS011;8692;52.164;7.558;2022-10-28T14:17:43;7.97;;;3.67;;
17153;SDS011;8692;52.164;7.558;2022-10-28T14:26:22;10.60;;;3.63;;
17153;SDS011;8692;52.164;7.558;2022-10-28T14:28:52;12.10;;;3.73;;
17153;SDS011;8692;52.164;7.558;2022-10-28T14:37:19;11.80;;;3.80;;
17153;SDS011;8692;52.164;7.558;2022-10-28T14:40:18;11.20;;;3.87;;
17153;SDS011;8692;52.164;7.558;2022-10-28T14:43:02;16.07;;;4.47;;
17153;SDS011;8692;52.164;7.558;2022-10-28T14:46:10;9.13;;;3.77;;
17153;SDS011;8692;52.164;7.558;2022-10-28T14:48:51;11.33;;;4.17;;
17153;SDS011;8692;52.164;7.558;2022-10-28T14:51:22;11.07;;;3.93;;
17153;SDS011;8692;52.164;7.558;2022-10-28T14:53:55;8.73;;;3.57;;
17153;SDS011;8692;52.164;7.558;2022-10-28T14:56:25;9.87;;;4.77;;
17153;SDS011;8692;52.164;7.558;2022-10-28T14:58:56;13.90;;;4.30;;
17153;SDS011;8692;52.164;7.558;2022-10-28T15:01:33;11.20;;;4.37;;
17153;SDS011;8692;52.164;7.558;2022-10-28T15:04:16;18.47;;;4.73;;
17153;SDS011;8692;52.164;7.558;2022-10-28T15:06:45;15.47;;;4.60;;
17153;SDS011;8692;52.164;7.558;2022-10-28T15:09:17;12.30;;;4.73;;
17153;SDS011;8692;52.164;7.558;2022-10-28T15:11:48;11.80;;;4.33;;
17153;SDS011;8692;52.164;7.558;2022-10-28T15:14:25;18.27;;;4.23;;
17153;SDS011;8692;52.164;7.558;2022-10-28T15:17:05;12.33;;;4.37;;
17153;SDS011;8692;52.164;7.558;2022-10-28T15:19:38;15.03;;;4.37;;
17153;SDS011;8692;52.164;7.558;2022-10-28T15:22:14;12.83;;;4.10;;
17153;SDS011;8692;52.164;7.558;2022-10-28T15:24:54;16.33;;;4.33;;
17153;SDS011;8692;52.164;7.558;2022-10-28T15:27:24;12.57;;;4.13;;
17153;SDS011;8692;52.164;7.558;2022-10-28T15:29:54;14.37;;;4.17;;
17153;SDS011;8692;52.164;7.558;2022-10-28T15:32:28;11.67;;;4.20;;
17153;SDS011;8692;52.164;7.558;2022-10-28T15:40:58;11.47;;;4.47;;
17153;SDS011;8692;52.164;7.558;2022-10-28T15:43:29;9.27;;;3.93;;
17153;SDS011;8692;52.164;7.558;2022-10-28T15:46:07;12.27;;;4.90;;
17153;SDS011;8692;52.164;7.558;2022-10-28T15:48:38;17.63;;;5.20;;
17153;SDS011;8692;52.164;7.558;2022-10-28T15:51:09;17.20;;;3.83;;
17153;SDS011;8692;52.164;7.558;2022-10-28T15:53:38;15.23;;;4.70;;
17153;SDS011;8692;52.164;7.558;2022-10-28T15:56:12;13.43;;;4.88;;
17153;SDS011;8692;52.164;7.558;2022-10-28T15:59:00;15.00;;;4.73;;
17153;SDS011;8692;52.164;7.558;2022-10-28T16:01:35;10.43;;;4.60;;
17153;SDS011;8692;52.164;7.558;2022-10-28T16:07:08;12.17;;;3.87;;
17153;SDS011;8692;52.164;7.558;2022-10-28T16:09:41;10.03;;;4.30;;
17153;SDS011;8692;52.164;7.558;2022-10-28T16:12:12;16.57;;;3.90;;
17153;SDS011;8692;52.164;7.558;2022-10-28T16:14:44;14.67;;;4.53;;
17153;SDS011;8692;52.164;7.558;2022-10-28T16:17:14;12.37;;;4.87;;